Time;durP1;ratioP1;P1;durP2;ratioP2;P2;SDS_P1;SDS_P2;PMS_P1;PMS_P2;Temp;Humidity;BMP_temperature;BMP_pressure;BME280_temperature;BME280_humidity;BME280_pressure;Samples;Min_cycle;Max_cycle;Signal;HPM_P1;HPM_P2
2022/11/14 00:00:48;;;;;;;20.67;13.50;;;5.20;99.90;;;;;;4885676;29;20217;-68
2022/11/14 00:03:33;;;;;;;18.00;13.23;;;5.20;99.90;;;;;;4897843;29;20240;-68
2022/11/14 00:06:19;;;;;;;17.57;13.47;;;5.20;99.90;;;;;;4902365;29;20221;-69
2022/11/14 00:09:05;;;;;;;20.63;13.97;;;5.10;99.90;;;;;;4898868;29;20206;-69
2022/11/14 00:11:50;;;;;;;18.73;14.00;;;5.00;99.90;;;;;;4899617;29;20942;-68
2022/11/14 00:14:37;;;;;;;20.83;15.07;;;5.00;99.90;;;;;;4885934;29;20207;-68
2022/11/14 00:17:22;;;;;;;20.53;14.30;;;4.90;99.90;;;;;;4900922;29;20216;-68
2022/11/14 00:20:10;;;;;;;18.27;12.83;;;4.90;99.90;;;;;;4887553;29;20291;-66
2022/11/14 00:22:56;;;;;;;18.60;13.50;;;4.90;99.90;;;;;;4885634;29;20212;-67
2022/11/14 00:25:43;;;;;;;18.43;12.73;;;4.90;99.90;;;;;;4898794;29;20208;-66
2022/11/14 00:28:28;;;;;;;18.80;13.67;;;4.90;99.90;;;;;;4901502;29;20208;-67
2022/11/14 00:31:15;;;;;;;16.30;12.87;;;4.80;99.90;;;;;;4895962;29;20211;-67
2022/11/14 00:34:00;;;;;;;17.93;13.20;;;4.70;99.90;;;;;;4888306;29;20714;-68
2022/11/14 00:36:45;;;;;;;17.17;13.17;;;4.60;99.90;;;;;;4898935;29;20205;-67
2022/11/14 00:39:31;;;;;;;17.70;13.63;;;4.60;99.90;;;;;;4899123;29;20204;-68
2022/11/14 00:42:17;;;;;;;20.80;14.63;;;4.60;99.90;;;;;;4900893;29;20276;-67
2022/11/14 00:45:03;;;;;;;20.10;14.57;;;4.50;99.90;;;;;;4888422;29;20372;-67
2022/11/14 00:47:48;;;;;;;21.33;14.40;;;4.40;99.90;;;;;;4900005;29;20669;-68
2022/11/14 00:50:34;;;;;;;19.67;14.27;;;4.30;99.90;;;;;;4899288;29;20211;-68
2022/11/14 00:53:19;;;;;;;19.93;13.37;;;4.30;99.90;;;;;;4885611;29;20410;-68
2022/11/14 00:56:05;;;;;;;20.53;14.10;;;4.30;99.90;;;;;;4898488;29;20204;-68
2022/11/14 00:58:51;;;;;;;20.10;13.33;;;4.20;99.90;;;;;;4896500;29;20204;-69
2022/11/14 01:01:36;;;;;;;17.97;13.67;;;4.20;99.90;;;;;;4894815;29;20274;-69
2022/11/14 01:04:22;;;;;;;17.83;12.90;;;4.20;99.90;;;;;;4883774;29;20242;-69
2022/11/14 01:07:08;;;;;;;18.27;12.97;;;4.10;99.90;;;;;;4899107;29;20216;-67
2022/11/14 01:09:53;;;;;;;17.10;12.60;;;4.00;99.90;;;;;;4884592;29;20219;-68
2022/11/14 01:12:41;;;;;;;17.77;13.17;;;4.00;99.90;;;;;;4881555;29;20352;-67
2022/11/14 01:15:27;;;;;;;18.97;13.13;;;3.90;99.90;;;;;;4897074;29;20211;-68
2022/11/14 01:18:17;;;;;;;17.20;12.67;;;4.00;99.90;;;;;;4895780;29;20212;-68
2022/11/14 01:21:08;;;;;;;16.13;12.90;;;3.90;99.90;;;;;;4895973;29;20220;-68
2022/11/14 01:23:53;;;;;;;15.40;12.07;;;3.90;99.90;;;;;;4896183;29;20212;-68
2022/11/14 01:26:39;;;;;;;16.50;12.27;;;3.80;99.90;;;;;;4886693;29;21120;-68
2022/11/14 01:29:25;;;;;;;17.90;12.33;;;3.80;99.90;;;;;;4882852;29;20207;-68
2022/11/14 01:32:10;;;;;;;18.00;12.63;;;3.70;99.90;;;;;;4881512;29;20211;-66
2022/11/14 01:34:55;;;;;;;20.37;12.67;;;3.60;99.90;;;;;;4883665;29;20203;-65
2022/11/14 01:37:41;;;;;;;15.70;12.40;;;3.60;99.90;;;;;;4897878;29;20199;-66
2022/11/14 01:40:27;;;;;;;18.23;12.20;;;3.50;99.90;;;;;;4885277;29;20295;-66
2022/11/14 01:43:15;;;;;;;17.37;12.13;;;3.40;99.90;;;;;;4882285;29;20200;-66
2022/11/14 01:46:22;;;;;;;17.60;12.77;;;3.40;99.90;;;;;;4897107;29;20231;-66
2022/11/14 01:49:10;;;;;;;17.00;11.90;;;3.40;99.90;;;;;;4895522;29;20667;-66
2022/11/14 01:52:04;;;;;;;17.27;12.07;;;3.40;99.90;;;;;;4885826;29;20205;-66
2022/11/14 01:54:53;;;;;;;16.63;12.20;;;3.30;99.90;;;;;;4882118;29;20714;-66
2022/11/14 01:57:46;;;;;;;20.17;12.93;;;3.30;99.90;;;;;;4899075;29;20467;-68
2022/11/14 02:00:32;;;;;;;17.30;12.33;;;3.30;99.90;;;;;;4887178;29;20572;-67
2022/11/14 02:03:18;;;;;;;18.87;12.97;;;3.30;99.90;;;;;;4883718;29;20208;-67
2022/11/14 02:06:06;;;;;;;15.60;12.60;;;3.30;99.90;;;;;;4881706;29;20345;-67
2022/11/14 02:08:53;;;;;;;19.73;13.03;;;3.20;99.90;;;;;;4893434;29;20216;-67
2022/11/14 02:11:44;;;;;;;17.27;12.67;;;3.20;99.90;;;;;;4870583;29;20593;-67
2022/11/14 02:14:30;;;;;;;19.77;11.27;;;3.20;99.90;;;;;;4873689;29;20287;-67
2022/11/14 02:17:17;;;;;;;16.73;12.43;;;3.20;99.90;;;;;;4898406;29;20195;-67
2022/11/14 02:20:30;;;;;;;15.93;11.93;;;3.20;99.90;;;;;;4896883;29;20301;-67
2022/11/14 02:23:25;;;;;;;17.23;11.87;;;3.10;99.90;;;;;;4896550;29;20228;-67
2022/11/14 02:26:11;;;;;;;17.00;12.00;;;3.10;99.90;;;;;;4893606;29;20283;-68
2022/11/14 02:28:56;;;;;;;17.47;12.83;;;3.10;99.90;;;;;;4896303;29;20210;-68
2022/11/14 02:31:42;;;;;;;17.07;12.80;;;3.10;99.90;;;;;;4883935;29;20210;-69
2022/11/14 02:34:28;;;;;;;23.63;13.83;;;3.10;99.90;;;;;;4883634;29;20219;-69
2022/11/14 02:37:13;;;;;;;18.63;13.87;;;3.10;99.90;;;;;;4892946;29;20199;-66
2022/11/14 02:39:59;;;;;;;20.83;13.53;;;3.10;99.90;;;;;;4893195;29;20336;-66
2022/11/14 02:42:44;;;;;;;22.10;14.60;;;3.30;1.00;;;;;;4883601;29;20204;-66
2022/11/14 02:45:30;;;;;;;21.97;14.80;;;3.30;99.90;;;;;;4885613;29;20662;-66
2022/11/14 02:48:15;;;;;;;19.27;13.57;;;3.40;99.90;;;;;;4898791;29;20199;-65
2022/11/14 02:51:01;;;;;;;17.70;13.13;;;3.40;99.90;;;;;;4897341;29;20215;-66
2022/11/14 02:53:46;;;;;;;20.27;13.17;;;3.30;99.90;;;;;;4896542;29;20243;-66
2022/11/14 02:56:32;;;;;;;22.00;14.33;;;3.40;1.00;;;;;;4894207;29;20556;-65
2022/11/14 02:59:18;;;;;;;21.37;14.87;;;3.50;1.00;;;;;;4888466;29;20223;-67
2022/11/14 03:02:04;;;;;;;20.93;14.67;;;3.50;1.00;;;;;;4884184;29;20867;-65
2022/11/14 03:04:49;;;;;;;23.23;16.50;;;3.50;1.00;;;;;;4888309;29;20342;-65
2022/11/14 03:07:35;;;;;;;20.27;14.50;;;3.40;1.00;;;;;;4895224;29;20215;-66
2022/11/14 03:10:22;;;;;;;21.63;14.53;;;3.30;1.00;;;;;;4895749;29;20270;-66
2022/11/14 03:13:07;;;;;;;18.00;12.90;;;3.20;1.00;;;;;;4893054;29;20236;-65
2022/11/14 03:15:53;;;;;;;21.23;14.37;;;3.10;99.90;;;;;;4880301;29;20413;-65
2022/11/14 03:18:39;;;;;;;19.60;13.33;;;3.00;99.90;;;;;;4896932;29;20336;-64
2022/11/14 03:21:24;;;;;;;20.00;13.10;;;2.90;99.90;;;;;;4897335;29;20501;-66
2022/11/14 03:24:10;;;;;;;21.17;14.03;;;2.90;99.90;;;;;;4895032;29;20277;-64
2022/11/14 03:26:55;;;;;;;23.50;15.27;;;2.90;99.90;;;;;;4897624;29;20611;-64
2022/11/14 03:29:41;;;;;;;19.17;13.97;;;2.90;99.90;;;;;;4892366;29;20388;-64
2022/11/14 03:32:27;;;;;;;17.80;13.83;;;2.80;99.90;;;;;;4892741;29;20203;-64
2022/11/14 03:35:12;;;;;;;22.23;15.03;;;2.80;1.00;;;;;;4894949;29;20219;-63
2022/11/14 03:37:58;;;;;;;21.30;14.47;;;2.80;1.00;;;;;;4898342;29;20294;-65
2022/11/14 03:40:43;;;;;;;20.77;14.47;;;2.80;1.00;;;;;;4893973;29;20203;-64
2022/11/14 03:43:31;;;;;;;20.07;14.33;;;2.70;1.00;;;;;;4896371;29;20683;-63
2022/11/14 03:46:17;;;;;;;20.57;15.03;;;2.70;1.00;;;;;;4894738;29;20679;-63
2022/11/14 03:49:03;;;;;;;20.60;14.30;;;2.70;1.00;;;;;;4903283;29;20212;-64
2022/11/14 03:51:49;;;;;;;20.83;14.07;;;2.70;1.00;;;;;;4904435;29;20211;-68
2022/11/14 03:54:35;;;;;;;20.27;13.73;;;2.60;99.90;;;;;;4900023;29;22131;-65
2022/11/14 03:57:20;;;;;;;20.87;13.73;;;2.50;99.90;;;;;;4899104;29;20210;-67
2022/11/14 04:00:07;;;;;;;24.10;13.93;;;2.50;99.90;;;;;;4903128;29;20335;-67
2022/11/14 04:02:56;;;;;;;18.97;13.13;;;2.50;99.90;;;;;;4900099;29;20947;-67
2022/11/14 04:05:45;;;;;;;18.20;13.73;;;2.40;99.90;;;;;;4898900;29;20277;-67
2022/11/14 04:08:31;;;;;;;18.20;13.50;;;2.30;99.90;;;;;;4901027;29;20215;-67
2022/11/14 04:11:18;;;;;;;22.23;14.87;;;2.40;99.90;;;;;;4896348;29;20280;-67
2022/11/14 04:14:03;;;;;;;20.53;13.60;;;2.30;99.90;;;;;;4884102;29;20226;-67
2022/11/14 04:16:49;;;;;;;21.50;14.43;;;2.30;99.90;;;;;;4898176;29;20602;-67
2022/11/14 04:19:35;;;;;;;21.80;15.23;;;2.30;99.90;;;;;;4896581;29;20207;-66
2022/11/14 04:22:20;;;;;;;23.67;14.90;;;2.30;99.90;;;;;;4900381;29;20220;-67
2022/11/14 04:25:07;;;;;;;22.07;14.53;;;2.30;99.90;;;;;;4894827;29;20211;-67
2022/11/14 04:27:53;;;;;;;23.03;14.87;;;2.30;99.90;;;;;;4898397;29;20208;-66
2022/11/14 04:30:38;;;;;;;20.73;13.97;;;2.20;99.90;;;;;;4897166;29;20212;-66
2022/11/14 04:33:24;;;;;;;19.57;14.60;;;2.20;99.90;;;;;;4884222;29;20255;-65
2022/11/14 04:36:09;;;;;;;21.43;15.00;;;2.30;99.90;;;;;;4898932;29;20203;-67
2022/11/14 04:38:55;;;;;;;21.60;14.30;;;2.30;99.90;;;;;;4901202;29;20893;-65
2022/11/14 04:41:40;;;;;;;19.73;14.00;;;2.20;99.90;;;;;;4899179;29;20215;-65
2022/11/14 04:44:26;;;;;;;22.73;14.87;;;2.30;99.90;;;;;;4885869;29;20576;-66
2022/11/14 04:47:11;;;;;;;23.83;14.37;;;2.30;99.90;;;;;;4900999;29;20352;-66
2022/11/14 04:49:57;;;;;;;20.00;13.90;;;2.20;99.90;;;;;;4886456;29;20211;-66
2022/11/14 04:52:43;;;;;;;20.33;14.10;;;2.20;99.90;;;;;;4896099;29;20897;-65
2022/11/14 04:55:28;;;;;;;21.73;14.40;;;2.20;99.90;;;;;;4899802;29;20227;-65
2022/11/14 04:58:14;;;;;;;22.87;15.73;;;2.10;99.90;;;;;;4899730;29;20259;-66
2022/11/14 05:01:05;;;;;;;22.00;14.63;;;2.10;99.90;;;;;;4887374;29;20715;-66
2022/11/14 05:03:51;;;;;;;20.17;13.50;;;2.00;99.90;;;;;;4897363;29;20241;-65
2022/11/14 05:06:36;;;;;;;20.00;13.53;;;2.00;1.00;;;;;;4901645;29;20211;-64
2022/11/14 05:09:22;;;;;;;23.20;14.30;;;1.90;1.00;;;;;;4898181;29;20684;-64
2022/11/14 05:12:08;;;;;;;19.87;13.20;;;1.90;1.00;;;;;;4895250;29;20239;-66
2022/11/14 05:14:53;;;;;;;22.53;13.90;;;1.90;1.00;;;;;;4897247;29;20943;-65
2022/11/14 05:17:39;;;;;;;20.33;14.23;;;1.80;1.00;;;;;;4897292;29;20272;-63
2022/11/14 05:20:24;;;;;;;20.07;14.23;;;1.90;1.00;;;;;;4899031;29;20581;-63
2022/11/14 05:23:22;;;;;;;21.27;14.00;;;1.80;1.00;;;;;;4895805;29;20289;-65
2022/11/14 05:26:10;;;;;;;21.90;14.00;;;1.70;1.00;;;;;;4899676;29;20256;-67
2022/11/14 05:28:56;;;;;;;20.20;13.60;;;1.70;1.00;;;;;;4900347;29;20261;-66
2022/11/14 05:31:41;;;;;;;23.33;15.10;;;1.70;1.00;;;;;;4898337;29;20555;-66
2022/11/14 05:34:27;;;;;;;21.80;13.87;;;1.70;1.00;;;;;;4892147;29;20330;-66
2022/11/14 05:37:12;;;;;;;22.67;14.67;;;1.70;1.00;;;;;;4884917;29;20199;-66
2022/11/14 05:39:58;;;;;;;25.97;14.10;;;1.70;1.00;;;;;;4896069;29;20679;-67
2022/11/14 05:42:43;;;;;;;22.13;15.57;;;1.70;1.00;;;;;;4899657;29;20204;-67
2022/11/14 05:45:30;;;;;;;23.30;16.07;;;1.70;1.00;;;;;;4893185;29;22087;-67
2022/11/14 05:48:16;;;;;;;25.67;15.10;;;1.70;1.00;;;;;;4894786;29;20204;-67
2022/11/14 05:51:03;;;;;;;21.77;14.97;;;1.70;1.00;;;;;;4885455;29;20208;-65
2022/11/14 05:53:49;;;;;;;21.80;14.77;;;1.60;1.00;;;;;;4896519;29;20228;-66
2022/11/14 05:56:35;;;;;;;23.63;15.37;;;1.60;1.00;;;;;;4897201;29;20208;-65
2022/11/14 05:59:21;;;;;;;22.63;14.87;;;1.70;1.00;;;;;;4894066;29;20747;-66
2022/11/14 06:02:06;;;;;;;22.00;15.57;;;1.80;1.00;;;;;;4893045;29;20236;-66
2022/11/14 06:04:52;;;;;;;21.10;15.30;;;1.70;1.00;;;;;;4882412;29;20238;-66
2022/11/14 06:07:37;;;;;;;19.20;14.57;;;1.70;1.00;;;;;;4898423;29;20672;-66
2022/11/14 06:10:24;;;;;;;22.73;15.77;;;1.60;1.00;;;;;;4898612;29;20200;-66
2022/11/14 06:13:10;;;;;;;21.33;15.07;;;1.60;1.00;;;;;;4898719;29;20231;-66
2022/11/14 06:16:04;;;;;;;24.30;15.07;;;1.60;1.00;;;;;;4878835;29;20228;-66
2022/11/14 06:18:52;;;;;;;22.17;15.93;;;1.60;1.00;;;;;;4897683;29;20576;-66
2022/11/14 06:21:38;;;;;;;22.33;14.63;;;1.60;1.00;;;;;;4884316;29;20207;-66
2022/11/14 06:24:23;;;;;;;25.53;14.43;;;1.60;1.00;;;;;;4899561;29;20351;-66
2022/11/14 06:27:09;;;;;;;27.97;16.17;;;1.60;1.00;;;;;;4895798;29;20272;-66
2022/11/14 06:29:54;;;;;;;28.93;15.57;;;1.50;1.00;;;;;;4895500;29;20255;-66
2022/11/14 06:32:40;;;;;;;27.17;17.10;;;1.50;1.00;;;;;;4896272;29;20211;-67
2022/11/14 06:35:27;;;;;;;29.50;16.80;;;1.50;1.00;;;;;;4893127;29;20224;-66
2022/11/14 06:38:12;;;;;;;32.20;19.73;;;1.50;1.00;;;;;;4898968;29;20255;-66
2022/11/14 06:41:05;;;;;;;31.47;19.27;;;1.50;1.00;;;;;;4875965;29;20207;-67
2022/11/14 06:43:53;;;;;;;30.60;19.47;;;1.60;1.00;;;;;;4895279;29;20208;-66
2022/11/14 06:46:38;;;;;;;33.27;19.20;;;1.50;1.00;;;;;;4898868;29;20208;-66
2022/11/14 06:49:24;;;;;;;33.07;18.57;;;1.50;1.00;;;;;;4883611;29;20207;-66
2022/11/14 06:52:09;;;;;;;31.43;18.17;;;1.60;1.00;;;;;;4879715;29;20301;-67
2022/11/14 06:54:55;;;;;;;29.77;16.13;;;1.60;1.00;;;;;;4896951;29;20279;-66
2022/11/14 06:57:41;;;;;;;24.93;16.03;;;1.60;1.00;;;;;;4898880;29;20199;-67
2022/11/14 07:00:26;;;;;;;27.97;16.47;;;1.70;1.00;;;;;;4897067;29;20317;-67
2022/11/14 07:03:12;;;;;;;25.60;15.73;;;1.70;1.00;;;;;;4884203;29;20196;-68
2022/11/14 07:06:00;;;;;;;24.43;16.80;;;1.70;1.00;;;;;;4899590;29;20204;-67
2022/11/14 07:08:46;;;;;;;24.33;17.00;;;1.80;1.00;;;;;;4896182;29;20837;-67
2022/11/14 07:11:34;;;;;;;28.37;17.20;;;1.80;1.00;;;;;;4898292;29;20612;-67
2022/11/14 07:14:19;;;;;;;29.30;18.40;;;1.80;1.00;;;;;;4898980;29;20312;-67
2022/11/14 07:17:05;;;;;;;27.13;18.20;;;1.90;1.00;;;;;;4898647;29;20626;-68
2022/11/14 07:19:51;;;;;;;24.10;16.17;;;2.00;1.00;;;;;;4900476;29;20207;-67
2022/11/14 07:22:36;;;;;;;26.27;17.30;;;2.00;1.00;;;;;;4878426;29;20212;-67
2022/11/14 07:25:22;;;;;;;30.90;17.23;;;2.00;1.00;;;;;;4884303;29;20219;-67
2022/11/14 07:28:07;;;;;;;27.40;16.23;;;2.10;1.00;;;;;;4896834;29;20341;-67
2022/11/14 07:30:53;;;;;;;25.57;16.53;;;2.20;1.00;;;;;;4886346;29;20340;-67
2022/11/14 07:33:39;;;;;;;27.90;18.17;;;2.30;99.90;;;;;;4898953;29;20208;-67
2022/11/14 07:36:25;;;;;;;27.03;18.13;;;2.40;99.90;;;;;;4897898;29;20340;-67
2022/11/14 07:39:11;;;;;;;23.63;16.20;;;2.30;99.90;;;;;;4897725;29;20729;-67
2022/11/14 07:41:56;;;;;;;26.10;15.93;;;2.40;1.00;;;;;;4885428;29;20207;-67
2022/11/14 07:44:41;;;;;;;23.57;16.20;;;2.40;1.00;;;;;;4894498;29;20247;-67
2022/11/14 07:47:27;;;;;;;23.03;15.47;;;2.50;1.00;;;;;;4899819;29;20794;-67
2022/11/14 07:50:12;;;;;;;23.03;16.73;;;2.60;1.00;;;;;;4880693;29;20348;-67
2022/11/14 07:53:04;;;;;;;26.57;17.40;;;2.70;1.00;;;;;;4885099;29;20223;-67
2022/11/14 07:55:50;;;;;;;24.20;16.07;;;2.80;1.00;;;;;;4878175;29;20591;-67
2022/11/14 07:58:40;;;;;;;26.23;16.43;;;2.90;1.00;;;;;;4896188;29;20212;-67
2022/11/14 08:01:26;;;;;;;27.93;17.20;;;3.10;1.00;;;;;;4895863;29;20204;-67
2022/11/14 08:04:11;;;;;;;25.77;17.00;;;3.20;1.00;;;;;;4899702;29;20283;-67
2022/11/14 08:06:57;;;;;;;24.57;15.80;;;3.30;1.00;;;;;;4897151;29;20340;-67
2022/11/14 08:09:42;;;;;;;26.03;16.33;;;3.40;1.00;;;;;;4898451;29;20203;-67
2022/11/14 08:12:28;;;;;;;24.50;16.63;;;3.60;1.00;;;;;;4885108;29;20235;-67
2022/11/14 08:15:14;;;;;;;23.63;16.93;;;3.70;99.90;;;;;;4897627;29;20740;-67
2022/11/14 08:18:00;;;;;;;33.30;18.47;;;3.80;99.90;;;;;;4895604;29;20207;-67
2022/11/14 08:20:46;;;;;;;25.00;17.40;;;3.90;99.90;;;;;;4895013;29;20216;-66
2022/11/14 08:23:31;;;;;;;32.03;16.90;;;4.00;99.90;;;;;;4891518;29;20196;-67
2022/11/14 08:26:16;;;;;;;24.97;15.90;;;4.10;99.90;;;;;;4897558;29;20279;-67
2022/11/14 08:29:02;;;;;;;22.87;15.70;;;4.20;99.90;;;;;;4895734;29;20217;-67
2022/11/14 08:31:48;;;;;;;22.90;15.97;;;4.30;99.90;;;;;;4891060;29;20698;-67
2022/11/14 08:34:35;;;;;;;22.70;15.47;;;4.40;99.90;;;;;;4900849;29;20223;-67
2022/11/14 08:37:20;;;;;;;22.67;15.60;;;4.60;99.90;;;;;;4884810;29;20207;-67
2022/11/14 08:40:06;;;;;;;27.27;16.80;;;4.70;99.90;;;;;;4896823;29;20212;-67
2022/11/14 08:42:57;;;;;;;22.17;14.73;;;4.80;99.90;;;;;;4881422;29;20235;-67
2022/11/14 08:45:42;;;;;;;21.37;14.47;;;4.80;99.90;;;;;;4898162;29;20652;-67
2022/11/14 08:48:28;;;;;;;22.77;15.67;;;5.00;99.90;;;;;;4900463;29;20288;-67
2022/11/14 08:51:14;;;;;;;19.97;13.77;;;5.00;92.00;;;;;;4891506;29;20691;-67
2022/11/14 08:54:00;;;;;;;19.60;13.73;;;5.20;61.60;;;;;;4892054;29;20251;-67
2022/11/14 08:56:46;;;;;;;20.67;13.30;;;5.30;26.80;;;;;;4880909;29;20215;-67
2022/11/14 08:59:31;;;;;;;15.70;11.73;;;5.90;1.00;;;;;;4892710;29;20601;-68
2022/11/14 09:02:17;;;;;;;14.53;10.67;;;11.40;1.00;;;;;;4899027;29;20336;-68
2022/11/14 09:05:03;;;;;;;13.13;11.27;;;14.90;1.00;;;;;;4893123;29;20455;-68
2022/11/14 09:07:48;;;;;;;17.07;11.20;;;17.50;1.00;;;;;;4892170;29;20211;-68
2022/11/14 09:10:34;;;;;;;12.88;10.38;;;18.20;1.00;;;;;;4885048;29;20317;-68
2022/11/14 09:13:21;;;;;;;12.25;10.02;;;19.80;1.00;;;;;;4896707;29;20316;-68
2022/11/14 09:16:06;;;;;;;13.18;10.43;;;19.70;1.00;;;;;;4879300;29;20397;-67
2022/11/14 09:18:52;;;;;;;13.85;10.77;;;19.80;1.00;;;;;;4894325;29;20199;-67
2022/11/14 09:21:38;;;;;;;11.52;9.85;;;21.50;1.00;;;;;;4883019;29;20546;-66
2022/11/14 09:24:23;;;;;;;13.52;10.75;;;22.10;1.00;;;;;;4885074;29;20547;-67
2022/11/14 09:27:09;;;;;;;11.77;10.48;;;21.40;1.00;;;;;;4894867;29;20248;-67
2022/11/14 09:29:54;;;;;;;11.70;10.43;;;21.50;1.00;;;;;;4898271;29;20251;-67
2022/11/14 09:32:40;;;;;;;13.88;10.65;;;22.10;1.00;;;;;;4882207;29;20211;-66
2022/11/14 09:35:26;;;;;;;11.20;9.98;;;23.20;1.00;;;;;;4890264;29;20228;-67
2022/11/14 09:38:12;;;;;;;10.43;9.32;;;22.40;1.00;;;;;;4897762;29;20735;-66
2022/11/14 09:41:22;;;;;;;10.45;9.35;;;21.60;1.00;;;;;;4882058;29;20682;-67
2022/11/14 09:44:31;;;;;;;11.32;10.13;;;23.00;1.00;;;;;;4896036;29;20211;-66
2022/11/14 09:47:27;;;;;;;11.13;9.68;;;23.30;1.00;;;;;;4896572;29;20244;-67
2022/11/14 09:50:14;;;;;;;11.45;9.73;;;23.10;1.00;;;;;;4883055;29;20321;-66
2022/11/14 09:53:18;;;;;;;11.77;10.35;;;22.80;1.00;;;;;;4893973;29;20908;-65
2022/11/14 09:56:04;;;;;;;11.07;9.38;;;22.10;1.00;;;;;;4884230;29;20763;-67
2022/11/14 09:58:49;;;;;;;11.55;10.30;;;19.60;1.00;;;;;;4887352;29;20199;-67
2022/11/14 10:02:00;;;;;;;16.35;11.35;;;20.10;1.00;;;;;;4897018;29;20205;-66
2022/11/14 10:05:04;;;;;;;13.60;10.57;;;16.90;1.00;;;;;;4892721;29;20243;-66
2022/11/14 10:08:05;;;;;;;11.95;10.30;;;20.80;1.00;;;;;;4896473;29;20211;-66
2022/11/14 10:11:16;;;;;;;11.88;10.15;;;19.00;1.00;;;;;;4896052;29;20686;-67
2022/11/14 10:14:32;;;;;;;12.20;10.05;;;19.10;1.00;;;;;;4897857;29;20747;-67
2022/11/14 10:17:18;;;;;;;11.77;10.25;;;21.60;1.00;;;;;;4898136;29;20264;-67
2022/11/14 10:20:09;;;;;;;11.75;10.55;;;22.10;1.00;;;;;;4881528;29;20272;-67
2022/11/14 10:23:20;;;;;;;11.82;10.07;;;21.40;1.00;;;;;;4898079;29;20204;-67
2022/11/14 10:26:28;;;;;;;11.73;9.98;;;20.70;1.00;;;;;;4897309;29;20214;-67
2022/11/14 10:29:46;;;;;;;11.02;9.73;;;21.00;1.00;;;;;;4896764;29;20344;-67
2022/11/14 10:33:00;;;;;;;11.57;10.15;;;20.90;1.00;;;;;;4894225;29;20449;-66
2022/11/14 10:35:53;;;;;;;12.05;9.57;;;18.30;1.00;;;;;;4879073;29;20586;-67
2022/11/14 10:38:53;;;;;;;10.82;9.70;;;16.10;1.00;;;;;;4893749;29;20203;-67
2022/11/14 10:41:40;;;;;;;12.57;10.50;;;17.70;1.00;;;;;;4895507;29;20258;-67
2022/11/14 10:44:51;;;;;;;14.15;10.38;;;17.00;1.00;;;;;;4894475;29;20207;-66
2022/11/14 10:47:42;;;;;;;13.50;10.65;;;17.20;1.00;;;;;;4894199;29;20286;-66
2022/11/14 10:50:45;;;;;;;12.38;10.25;;;17.80;1.00;;;;;;4895611;29;20240;-66
2022/11/14 10:53:30;;;;;;;12.68;10.65;;;16.80;1.00;;;;;;4898628;29;20212;-66
2022/11/14 10:56:16;;;;;;;16.60;11.80;;;18.10;1.00;;;;;;4903380;29;20306;-66
2022/11/14 10:59:02;;;;;;;11.25;9.95;;;21.90;1.00;;;;;;4875787;29;20207;-68
2022/11/14 11:01:52;;;;;;;12.95;11.00;;;19.90;1.00;;;;;;4898105;29;20212;-67
2022/11/14 11:04:40;;;;;;;15.85;12.15;;;15.90;1.00;;;;;;4893888;29;20235;-67
2022/11/14 11:13:47;;;;;;;14.10;11.53;;;11.90;1.00;;;;;;4898919;29;20430;-67
2022/11/14 11:16:33;;;;;;;13.47;11.40;;;12.60;1.00;;;;;;4883339;29;20718;-66
2022/11/14 11:19:24;;;;;;;14.67;10.83;;;12.20;1.00;;;;;;4890443;29;20703;-66
2022/11/14 11:22:24;;;;;;;13.80;10.53;;;12.00;1.00;;;;;;4897554;29;20570;-66
2022/11/14 11:25:27;;;;;;;13.17;10.20;;;11.90;1.00;;;;;;4901607;29;20211;-66
2022/11/14 11:28:15;;;;;;;12.77;10.30;;;12.40;1.00;;;;;;4886097;29;20214;-66
2022/11/14 11:31:04;;;;;;;12.33;10.57;;;14.40;1.00;;;;;;4900345;29;20723;-66
2022/11/14 11:33:49;;;;;;;13.35;10.65;;;16.40;1.00;;;;;;4896964;29;20563;-67
2022/11/14 11:36:46;;;;;;;12.23;9.27;;;17.70;1.00;;;;;;4897715;29;20257;-67
2022/11/14 11:39:39;;;;;;;11.80;9.82;;;18.40;1.00;;;;;;4901073;29;20781;-66
2022/11/14 11:42:24;;;;;;;10.80;9.02;;;18.10;1.00;;;;;;4901476;29;20199;-67
2022/11/14 11:45:17;;;;;;;10.32;9.13;;;18.00;1.00;;;;;;4901208;29;20933;-67
2022/11/14 11:48:19;;;;;;;9.88;8.82;;;17.50;1.00;;;;;;4887952;29;20211;-67
2022/11/14 11:51:09;;;;;;;10.55;8.80;;;17.30;1.00;;;;;;4897392;29;20203;-67
2022/11/14 11:54:12;;;;;;;10.60;8.88;;;16.50;1.00;;;;;;4885878;29;20208;-67
2022/11/14 11:57:02;;;;;;;11.77;9.38;;;16.70;1.00;;;;;;4882809;29;20451;-67
2022/11/14 11:59:54;;;;;;;10.25;8.43;;;16.80;1.00;;;;;;4897453;29;20280;-68
2022/11/14 12:02:43;;;;;;;10.52;9.15;;;16.20;1.00;;;;;;4881773;29;20208;-67
2022/11/14 12:05:56;;;;;;;12.23;9.23;;;15.50;1.00;;;;;;4880680;29;20339;-67
2022/11/14 12:09:05;;;;;;;13.10;9.20;;;15.20;1.00;;;;;;4875768;29;20208;-67
2022/11/14 12:11:56;;;;;;;10.40;9.10;;;15.00;1.00;;;;;;4881228;29;20244;-68
2022/11/14 12:14:50;;;;;;;9.85;8.38;;;14.90;1.00;;;;;;4895657;29;20207;-68
2022/11/14 12:17:48;;;;;;;13.63;10.32;;;15.30;1.00;;;;;;4880173;29;20208;-68
2022/11/14 12:21:09;;;;;;;12.80;9.70;;;15.30;1.00;;;;;;4897243;29;20204;-67
2022/11/14 12:24:07;;;;;;;11.77;9.50;;;14.50;1.00;;;;;;4898681;29;20212;-67
2022/11/14 12:27:23;;;;;;;10.60;8.38;;;14.60;1.00;;;;;;4885951;29;20211;-67
2022/11/14 12:30:20;;;;;;;15.40;10.10;;;14.90;1.00;;;;;;4900900;29;20211;-68
2022/11/14 12:33:27;;;;;;;10.70;9.13;;;15.50;1.00;;;;;;4888680;29;20711;-67
2022/11/14 12:36:14;;;;;;;10.10;9.10;;;16.00;1.00;;;;;;4898874;29;20220;-68
2022/11/14 12:39:01;;;;;;;11.73;9.90;;;15.40;1.00;;;;;;4885692;29;20215;-67
2022/11/14 12:41:46;;;;;;;11.53;10.23;;;13.80;1.00;;;;;;4899050;29;20211;-67
2022/11/14 12:44:37;;;;;;;11.83;9.57;;;14.40;1.00;;;;;;4895823;29;21191;-70
2022/11/14 12:47:25;;;;;;;10.43;9.27;;;14.80;1.00;;;;;;4884864;29;20302;-67
2022/11/14 12:50:30;;;;;;;11.40;9.93;;;14.40;1.00;;;;;;4900057;29;20332;-66
2022/11/14 12:53:36;;;;;;;13.03;9.20;;;13.80;1.00;;;;;;4900442;29;20278;-68
2022/11/14 12:56:28;;;;;;;12.27;9.07;;;13.30;1.00;;;;;;4889755;29;20497;-68
2022/11/14 12:59:16;;;;;;;12.00;9.10;;;12.90;1.00;;;;;;4883361;29;20412;-68
2022/11/14 13:02:41;;;;;;;12.53;9.63;;;12.30;1.00;;;;;;4895284;29;20690;-67
2022/11/14 13:05:39;;;;;;;11.20;9.17;;;12.40;1.00;;;;;;4895227;29;20373;-66
2022/11/14 13:08:39;;;;;;;12.47;9.33;;;12.40;1.00;;;;;;4894765;29;20208;-66
2022/11/14 13:24:59;;;;;;;13.47;9.13;;;12.60;1.00;;;;;;4896522;29;20204;-69
2022/11/14 13:27:45;;;;;;;12.53;9.63;;;12.40;1.00;;;;;;4881620;29;20207;-67
2022/11/14 13:31:20;;;;;;;11.63;9.43;;;12.40;1.00;;;;;;4879929;29;20245;-67
2022/11/14 13:34:34;;;;;;;12.03;9.57;;;12.40;1.00;;;;;;4882196;29;20748;-64
2022/11/14 13:37:44;;;;;;;13.27;9.80;;;12.40;1.00;;;;;;4882306;29;20306;-66
2022/11/14 13:40:41;;;;;;;11.00;8.90;;;12.20;1.00;;;;;;4896278;29;20250;-67
2022/11/14 13:43:48;;;;;;;13.30;9.60;;;12.10;1.00;;;;;;4884541;29;20207;-68
2022/11/14 13:47:17;;;;;;;14.23;9.50;;;12.10;1.00;;;;;;4887940;29;20208;-67
2022/11/14 13:50:10;;;;;;;12.47;9.43;;;12.10;1.00;;;;;;4895705;29;21057;-67
2022/11/14 13:52:56;;;;;;;13.27;10.13;;;12.10;1.00;;;;;;4899417;29;20215;-66
2022/11/14 13:56:15;;;;;;;13.40;10.43;;;12.00;1.00;;;;;;4882758;29;20223;-67
2022/11/14 13:59:18;;;;;;;13.00;9.47;;;11.90;1.00;;;;;;4898049;29;20294;-66
2022/11/14 14:02:27;;;;;;;12.50;9.30;;;11.90;1.00;;;;;;4896403;29;20577;-68
2022/11/14 14:05:38;;;;;;;16.03;11.00;;;12.00;1.00;;;;;;4885582;29;21292;-68
2022/11/14 14:08:36;;;;;;;13.60;9.43;;;11.90;1.00;;;;;;4899204;29;20212;-67
2022/11/14 14:11:46;;;;;;;12.63;9.80;;;11.80;1.00;;;;;;4888663;29;20284;-65
2022/11/14 14:14:49;;;;;;;14.00;10.03;;;11.80;1.00;;;;;;4900680;29;20205;-66
2022/11/14 14:18:19;;;;;;;12.87;9.57;;;11.70;1.00;;;;;;4898410;29;20355;-65
2022/11/14 14:21:16;;;;;;;11.73;9.83;;;11.70;1.00;;;;;;4848718;29;20219;-64
2022/11/14 14:24:14;;;;;;;12.93;10.00;;;11.70;1.00;;;;;;4890208;29;20208;-65
2022/11/14 14:27:22;;;;;;;14.47;9.40;;;11.70;1.00;;;;;;4878665;29;20224;-67
2022/11/14 14:30:13;;;;;;;13.43;9.93;;;11.70;1.00;;;;;;4897779;29;20232;-65
2022/11/14 14:33:11;;;;;;;14.70;10.73;;;11.60;1.00;;;;;;4898582;29;20212;-65
2022/11/14 14:35:56;;;;;;;12.13;10.00;;;11.60;1.00;;;;;;4890474;29;20235;-63
2022/11/14 14:38:42;;;;;;;13.37;10.30;;;11.60;1.00;;;;;;4882489;29;20622;-68
2022/11/14 14:41:31;;;;;;;14.03;10.30;;;11.60;1.00;;;;;;4899240;29;20247;-72
2022/11/14 14:44:37;;;;;;;14.50;11.07;;;11.60;1.00;;;;;;4897641;29;20200;-69
2022/11/14 14:47:41;;;;;;;12.77;9.77;;;11.60;1.00;;;;;;4898987;29;20231;-68
2022/11/14 14:50:34;;;;;;;14.73;10.10;;;11.40;1.00;;;;;;4883991;29;20295;-68
2022/11/14 14:53:22;;;;;;;13.57;10.87;;;11.20;1.00;;;;;;4891114;29;20333;-61
2022/11/14 14:56:20;;;;;;;10.27;8.57;;;11.10;1.00;;;;;;4893215;29;20227;-64
2022/11/14 14:59:20;;;;;;;14.30;9.50;;;11.00;1.00;;;;;;4895311;29;20200;-61